Time;durP1;ratioP1;P1;durP2;ratioP2;P2;SDS_P1;SDS_P2;PMS_P1;PMS_P2;Temp;Humidity;BMP_temperature;BMP_pressure;BME280_temperature;BME280_humidity;BME280_pressure;Samples;Min_cycle;Max_cycle;Signal;HPM_P1;HPM_P2
2022/04/03 00:01:35;;;;;;;;;;;20.90;26.10;;;;;;5147324;27;20298;-57
2022/04/03 00:04:00;;;;;;;;;;;20.90;26.20;;;;;;5120690;27;19934;-56
2022/04/03 00:06:26;;;;;;;;;;;20.90;26.20;;;;;;5142040;27;20391;-56
2022/04/03 00:08:53;;;;;;;;;;;21.00;26.10;;;;;;5148142;27;19923;-56
2022/04/03 00:11:20;;;;;;;;;;;21.00;26.10;;;;;;5142692;27;19923;-57
2022/04/03 00:13:46;;;;;;;;;;;20.90;26.10;;;;;;5145868;27;19998;-58
2022/04/03 00:16:12;;;;;;;;;;;20.90;26.20;;;;;;5145385;27;19931;-57
2022/04/03 00:18:38;;;;;;;;;;;21.00;26.10;;;;;;5142390;27;19923;-58
2022/04/03 00:21:03;;;;;;;;;;;20.90;26.20;;;;;;5146010;27;19923;-57
2022/04/03 00:23:29;;;;;;;;;;;21.00;26.20;;;;;;5120868;27;19923;-55
2022/04/03 00:25:55;;;;;;;;;;;21.00;26.20;;;;;;5141765;27;20013;-57
2022/04/03 00:28:21;;;;;;;;;;;21.00;26.10;;;;;;5147966;27;19934;-55
2022/04/03 00:30:46;;;;;;;;;;;20.90;26.10;;;;;;5142441;27;19923;-56
2022/04/03 00:33:12;;;;;;;;;;;21.00;26.10;;;;;;5143393;27;19934;-56
2022/04/03 00:35:38;;;;;;;;;;;21.00;26.10;;;;;;5147074;27;20014;-56
2022/04/03 00:38:04;;;;;;;;;;;21.00;26.10;;;;;;5141630;27;19923;-54
2022/04/03 00:40:30;;;;;;;;;;;21.10;26.00;;;;;;5144840;27;19923;-51
2022/04/03 00:42:56;;;;;;;;;;;21.10;26.00;;;;;;5141454;27;19927;-44
2022/04/03 00:45:21;;;;;;;;;;;21.20;25.80;;;;;;5142663;27;19927;-57
2022/04/03 00:47:48;;;;;;;;;;;21.20;25.90;;;;;;5147592;27;19923;-51
2022/04/03 00:50:14;;;;;;;;;;;21.10;25.90;;;;;;5142407;27;20015;-47
2022/04/03 00:52:40;;;;;;;;;;;21.20;25.80;;;;;;5123973;27;20447;-56
2022/04/03 00:55:06;;;;;;;;;;;21.30;25.80;;;;;;5147628;27;20001;-58
2022/04/03 00:57:31;;;;;;;;;;;21.10;26.00;;;;;;5141280;27;20014;-56
2022/04/03 00:59:57;;;;;;;;;;;21.10;25.90;;;;;;5125565;27;20293;-56
2022/04/03 01:02:23;;;;;;;;;;;21.10;26.00;;;;;;5141838;27;19927;-53
2022/04/03 01:04:49;;;;;;;;;;;21.10;26.00;;;;;;5142047;27;19923;-58
2022/04/03 01:07:15;;;;;;;;;;;21.10;25.90;;;;;;5147452;27;20375;-59
2022/04/03 01:09:41;;;;;;;;;;;21.00;26.10;;;;;;5142103;27;19943;-59
2022/04/03 01:12:07;;;;;;;;;;;21.00;26.10;;;;;;5123338;27;20276;-59
2022/04/03 01:14:33;;;;;;;;;;;21.00;26.10;;;;;;5146899;27;19980;-59
2022/04/03 01:16:59;;;;;;;;;;;20.90;26.20;;;;;;5120781;27;19923;-59
2022/04/03 01:19:24;;;;;;;;;;;20.90;26.20;;;;;;5144974;27;19930;-58
2022/04/03 01:21:50;;;;;;;;;;;21.00;26.10;;;;;;5141865;27;19974;-58
2022/04/03 01:24:17;;;;;;;;;;;20.90;26.10;;;;;;5141895;27;19930;-59
2022/04/03 01:26:43;;;;;;;;;;;20.90;26.10;;;;;;5147091;27;19927;-59
2022/04/03 01:29:09;;;;;;;;;;;21.00;26.10;;;;;;5141937;27;20322;-57
2022/04/03 01:31:35;;;;;;;;;;;21.00;26.10;;;;;;5141575;27;19923;-57
2022/04/03 01:34:00;;;;;;;;;;;21.00;26.10;;;;;;5146364;27;19923;-56
2022/04/03 01:36:26;;;;;;;;;;;20.90;26.00;;;;;;5138600;27;20419;-55
2022/04/03 01:38:52;;;;;;;;;;;21.00;26.00;;;;;;5149526;27;20267;-57
2022/04/03 01:41:18;;;;;;;;;;;21.00;26.00;;;;;;5146621;27;19926;-56
2022/04/03 01:43:43;;;;;;;;;;;21.00;26.00;;;;;;5145933;27;20367;-51
2022/04/03 01:46:09;;;;;;;;;;;21.10;25.90;;;;;;5151005;27;19934;-48
2022/04/03 01:48:35;;;;;;;;;;;21.10;25.80;;;;;;5145610;27;20446;-58
2022/04/03 01:51:01;;;;;;;;;;;21.10;25.70;;;;;;5145142;27;19980;-55
2022/04/03 01:53:26;;;;;;;;;;;21.10;25.80;;;;;;5149196;27;19923;-59
2022/04/03 01:55:59;;;;;;;;;;;21.20;25.80;;;;;;5142193;27;20374;-58
2022/04/03 01:58:24;;;;;;;;;;;21.00;26.00;;;;;;5145400;27;20443;-58
2022/04/03 02:00:50;;;;;;;;;;;20.90;26.00;;;;;;5150941;27;19973;-58
2022/04/03 02:03:17;;;;;;;;;;;21.00;25.90;;;;;;5145236;27;19930;-59
2022/04/03 02:05:43;;;;;;;;;;;21.00;26.00;;;;;;5130037;27;19923;-58
2022/04/03 02:08:09;;;;;;;;;;;20.80;26.00;;;;;;5145176;27;19923;-56
2022/04/03 02:10:35;;;;;;;;;;;21.00;25.90;;;;;;5126039;27;19960;-57
2022/04/03 02:13:00;;;;;;;;;;;20.90;25.90;;;;;;5147146;27;20367;-58
2022/04/03 02:15:26;;;;;;;;;;;21.00;26.00;;;;;;5143761;27;20363;-57
2022/04/03 02:17:52;;;;;;;;;;;21.00;25.90;;;;;;5145130;27;19934;-59
2022/04/03 02:20:18;;;;;;;;;;;21.00;25.80;;;;;;5150394;27;19931;-57
2022/04/03 02:22:44;;;;;;;;;;;21.00;25.70;;;;;;5144879;27;20370;-56
2022/04/03 02:25:11;;;;;;;;;;;21.00;25.80;;;;;;5150278;27;19945;-56
2022/04/03 02:27:37;;;;;;;;;;;21.10;25.70;;;;;;5144739;27;19975;-45
2022/04/03 02:30:04;;;;;;;;;;;21.10;25.70;;;;;;5144620;27;20434;-50
2022/04/03 02:32:30;;;;;;;;;;;21.30;25.50;;;;;;5146672;27;19922;-51
2022/04/03 02:34:56;;;;;;;;;;;21.20;25.50;;;;;;5144389;27;20173;-59
2022/04/03 02:37:22;;;;;;;;;;;21.00;25.70;;;;;;5144360;27;19930;-58
2022/04/03 02:39:47;;;;;;;;;;;21.00;25.80;;;;;;5150053;27;19930;-57
2022/04/03 02:42:13;;;;;;;;;;;20.90;25.80;;;;;;5144606;27;20013;-58
2022/04/03 02:44:39;;;;;;;;;;;20.90;25.80;;;;;;5149393;27;20440;-57
2022/04/03 02:47:05;;;;;;;;;;;20.80;25.80;;;;;;5144738;27;20055;-59
2022/04/03 02:49:31;;;;;;;;;;;20.80;25.80;;;;;;5138755;27;19927;-56
2022/04/03 02:51:57;;;;;;;;;;;20.90;25.80;;;;;;5147443;27;19938;-58
2022/04/03 02:54:22;;;;;;;;;;;20.80;25.90;;;;;;5144369;27;20403;-55
2022/04/03 02:56:48;;;;;;;;;;;20.90;25.90;;;;;;5143996;27;19923;-57
2022/04/03 02:59:14;;;;;;;;;;;20.90;25.80;;;;;;5149322;27;19973;-58
2022/04/03 03:01:41;;;;;;;;;;;20.90;25.80;;;;;;5143993;27;19935;-56
2022/04/03 03:04:06;;;;;;;;;;;21.00;25.70;;;;;;5146165;27;20030;-57
2022/04/03 03:06:32;;;;;;;;;;;21.10;25.70;;;;;;5146083;27;20294;-57
2022/04/03 03:08:59;;;;;;;;;;;21.00;25.60;;;;;;5140356;27;19931;-55
2022/04/03 03:11:25;;;;;;;;;;;21.00;25.60;;;;;;5148793;27;20361;-57
2022/04/03 03:13:51;;;;;;;;;;;21.10;25.60;;;;;;5144386;27;19934;-52
2022/04/03 03:16:16;;;;;;;;;;;21.20;25.50;;;;;;5144335;27;20439;-44
2022/04/03 03:18:42;;;;;;;;;;;21.30;25.40;;;;;;5149105;27;19945;-59
2022/04/03 03:21:08;;;;;;;;;;;21.10;25.40;;;;;;5143381;27;19927;-59
2022/04/03 03:23:34;;;;;;;;;;;20.90;25.60;;;;;;5143456;27;20290;-58
2022/04/03 03:25:59;;;;;;;;;;;20.80;25.80;;;;;;5128228;27;20018;-59
2022/04/03 03:28:26;;;;;;;;;;;20.80;25.80;;;;;;5140546;27;19927;-58
2022/04/03 03:30:52;;;;;;;;;;;20.80;25.80;;;;;;5148970;27;19927;-59
2022/04/03 03:33:18;;;;;;;;;;;20.80;25.70;;;;;;5143518;27;19984;-60
2022/04/03 03:35:44;;;;;;;;;;;20.80;25.70;;;;;;5143374;27;19982;-58
2022/04/03 03:38:10;;;;;;;;;;;20.70;25.70;;;;;;5148739;27;20316;-59
2022/04/03 03:40:38;;;;;;;;;;;20.80;25.60;;;;;;5143179;27;19927;-59
2022/04/03 03:43:04;;;;;;;;;;;20.80;25.70;;;;;;5142529;27;19934;-59
2022/04/03 03:45:30;;;;;;;;;;;20.80;25.60;;;;;;5145324;27;19966;-57
2022/04/03 03:47:57;;;;;;;;;;;20.90;25.60;;;;;;5142041;27;20358;-59
2022/04/03 03:50:23;;;;;;;;;;;20.90;25.60;;;;;;5148506;27;19971;-57
2022/04/03 03:52:49;;;;;;;;;;;20.90;25.60;;;;;;5142733;27;19927;-57
2022/04/03 03:55:15;;;;;;;;;;;20.90;25.60;;;;;;5142989;27;20279;-59
2022/04/03 03:57:44;;;;;;;;;;;20.90;25.60;;;;;;5148153;27;19923;-58
2022/04/03 04:00:10;;;;;;;;;;;20.90;25.50;;;;;;5123341;27;20212;-58
2022/04/03 04:02:36;;;;;;;;;;;20.90;25.50;;;;;;5141146;27;20356;-58
2022/04/03 04:05:01;;;;;;;;;;;20.90;25.60;;;;;;5144785;27;19927;-59
2022/04/03 04:07:36;;;;;;;;;;;21.00;25.50;;;;;;5142633;27;19923;-58
2022/04/03 04:10:03;;;;;;;;;;;20.90;25.50;;;;;;5141906;27;20010;-58
2022/04/03 04:12:29;;;;;;;;;;;20.90;25.50;;;;;;5148186;27;19952;-56
2022/04/03 04:14:54;;;;;;;;;;;20.90;25.40;;;;;;5142920;27;20407;-58
2022/04/03 04:17:20;;;;;;;;;;;20.90;25.50;;;;;;5147969;27;19931;-58
2022/04/03 04:19:46;;;;;;;;;;;21.00;25.50;;;;;;5142237;27;19949;-58
2022/04/03 04:22:12;;;;;;;;;;;20.80;25.50;;;;;;5139443;27;20290;-56
2022/04/03 04:24:38;;;;;;;;;;;20.90;25.50;;;;;;5145905;27;19927;-54
2022/04/03 04:27:03;;;;;;;;;;;20.80;25.50;;;;;;5142269;27;20435;-57
2022/04/03 04:29:29;;;;;;;;;;;20.90;25.50;;;;;;5142542;27;20130;-58
2022/04/03 04:31:55;;;;;;;;;;;20.90;25.50;;;;;;5129388;27;19927;-58
2022/04/03 04:34:21;;;;;;;;;;;21.00;25.50;;;;;;5142284;27;19938;-57
2022/04/03 04:36:47;;;;;;;;;;;20.90;25.50;;;;;;5147675;27;19923;-57
2022/04/03 04:39:12;;;;;;;;;;;21.00;25.40;;;;;;5141457;27;20285;-56
2022/04/03 04:41:40;;;;;;;;;;;20.90;25.40;;;;;;5139036;27;20342;-57
2022/04/03 04:44:06;;;;;;;;;;;21.00;25.40;;;;;;5147404;27;19927;-57
2022/04/03 04:46:32;;;;;;;;;;;20.90;25.40;;;;;;5123877;27;19990;-57
2022/04/03 04:48:57;;;;;;;;;;;20.90;25.40;;;;;;5142242;27;20402;-58
2022/04/03 04:51:23;;;;;;;;;;;21.00;25.40;;;;;;5147714;27;19955;-56
2022/04/03 04:53:49;;;;;;;;;;;21.00;25.40;;;;;;5142105;27;20282;-58
2022/04/03 04:56:15;;;;;;;;;;;21.00;25.40;;;;;;5147126;27;19927;-54
2022/04/03 04:58:40;;;;;;;;;;;21.00;25.40;;;;;;5121577;27;19923;-58
2022/04/03 05:01:06;;;;;;;;;;;21.00;25.40;;;;;;5139496;27;19935;-57
2022/04/03 05:03:32;;;;;;;;;;;21.00;25.40;;;;;;5147499;27;20000;-58
2022/04/03 05:05:58;;;;;;;;;;;21.00;25.50;;;;;;5142124;27;19931;-55
2022/04/03 05:08:23;;;;;;;;;;;20.90;25.50;;;;;;5141874;27;19934;-57
2022/04/03 05:10:50;;;;;;;;;;;21.00;25.50;;;;;;5147368;27;19927;-56
2022/04/03 05:13:15;;;;;;;;;;;21.00;25.50;;;;;;5126807;27;19976;-55
2022/04/03 05:15:41;;;;;;;;;;;20.90;25.40;;;;;;5148941;27;20305;-56
2022/04/03 05:18:07;;;;;;;;;;;21.00;25.40;;;;;;5145210;27;19963;-55
2022/04/03 05:20:33;;;;;;;;;;;21.00;25.30;;;;;;5144858;27;19972;-56
2022/04/03 05:22:59;;;;;;;;;;;20.90;25.30;;;;;;5133163;27;20024;-56
2022/04/03 05:25:25;;;;;;;;;;;20.80;25.40;;;;;;5145699;27;19927;-58
2022/04/03 05:27:50;;;;;;;;;;;20.90;25.30;;;;;;5145811;27;19927;-56
2022/04/03 05:30:16;;;;;;;;;;;20.80;25.20;;;;;;5151348;27;20328;-56
2022/04/03 05:32:42;;;;;;;;;;;20.80;25.20;;;;;;5145856;27;19935;-56
2022/04/03 05:35:08;;;;;;;;;;;20.80;25.30;;;;;;5145902;27;19923;-56
2022/04/03 05:37:34;;;;;;;;;;;21.00;25.20;;;;;;5147069;27;20374;-56
2022/04/03 05:40:00;;;;;;;;;;;20.90;25.30;;;;;;5145416;27;19923;-52
2022/04/03 05:42:25;;;;;;;;;;;20.80;25.30;;;;;;5150984;27;19927;-55
2022/04/03 05:44:51;;;;;;;;;;;20.90;25.20;;;;;;5145883;27;20882;-53
2022/04/03 05:47:17;;;;;;;;;;;20.90;25.20;;;;;;5127219;27;19927;-56
2022/04/03 05:49:43;;;;;;;;;;;20.90;25.20;;;;;;5150920;27;19931;-54
2022/04/03 05:52:09;;;;;;;;;;;20.90;25.10;;;;;;5145082;27;19923;-53
2022/04/03 05:54:35;;;;;;;;;;;20.90;25.10;;;;;;5142887;27;20351;-56
2022/04/03 05:57:01;;;;;;;;;;;21.00;25.00;;;;;;5148842;27;19923;-55
2022/04/03 05:59:26;;;;;;;;;;;21.00;25.10;;;;;;5145501;27;19952;-52
2022/04/03 06:01:52;;;;;;;;;;;21.00;25.00;;;;;;5151143;27;19934;-52
2022/04/03 06:04:18;;;;;;;;;;;21.00;25.00;;;;;;5145729;27;20035;-53
2022/04/03 06:06:44;;;;;;;;;;;21.10;24.90;;;;;;5145492;27;19934;-51
2022/04/03 06:09:09;;;;;;;;;;;21.00;24.90;;;;;;5150603;27;19930;-50
2022/04/03 06:11:35;;;;;;;;;;;21.00;24.80;;;;;;5144337;27;20305;-52
2022/04/03 06:14:01;;;;;;;;;;;21.10;24.70;;;;;;5142138;27;19956;-49
2022/04/03 06:16:27;;;;;;;;;;;21.10;24.70;;;;;;5150375;27;20259;-51
2022/04/03 06:18:53;;;;;;;;;;;21.20;24.50;;;;;;5145380;27;19927;-58
2022/04/03 06:21:19;;;;;;;;;;;21.20;24.50;;;;;;5150151;27;19934;-59
2022/04/03 06:23:45;;;;;;;;;;;20.90;24.80;;;;;;5143576;27;19980;-59
2022/04/03 06:26:10;;;;;;;;;;;20.80;24.80;;;;;;5126293;27;20362;-58
2022/04/03 06:28:36;;;;;;;;;;;20.80;24.60;;;;;;5149863;27;20272;-59
2022/04/03 06:31:02;;;;;;;;;;;20.80;24.60;;;;;;5142596;27;19931;-59
2022/04/03 06:33:28;;;;;;;;;;;20.70;24.70;;;;;;5141355;27;19927;-59
2022/04/03 06:35:54;;;;;;;;;;;20.80;24.60;;;;;;5131352;27;19927;-59
2022/04/03 06:38:20;;;;;;;;;;;20.80;24.60;;;;;;5144483;27;20457;-58
2022/04/03 06:40:50;;;;;;;;;;;20.80;24.60;;;;;;5149887;27;19923;-56
2022/04/03 06:43:19;;;;;;;;;;;20.80;24.50;;;;;;5146365;27;19971;-58
2022/04/03 06:45:45;;;;;;;;;;;20.80;24.50;;;;;;5144497;27;19933;-56
2022/04/03 06:48:10;;;;;;;;;;;20.80;24.50;;;;;;5130756;27;19923;-57
2022/04/03 06:50:36;;;;;;;;;;;20.80;24.50;;;;;;5141080;27;19923;-54
2022/04/03 06:53:03;;;;;;;;;;;20.80;24.60;;;;;;5142941;27;19923;-56
2022/04/03 06:55:29;;;;;;;;;;;20.80;24.50;;;;;;5149815;27;19931;-56
2022/04/03 06:57:55;;;;;;;;;;;20.80;24.60;;;;;;5144216;27;19931;-56
2022/04/03 07:00:21;;;;;;;;;;;20.80;24.50;;;;;;5144185;27;19995;-53
2022/04/03 07:02:48;;;;;;;;;;;20.70;24.50;;;;;;5149520;27;20018;-57
2022/04/03 07:05:13;;;;;;;;;;;20.80;24.40;;;;;;5143813;27;20293;-58
2022/04/03 07:07:39;;;;;;;;;;;20.80;24.40;;;;;;5147965;27;19947;-54
2022/04/03 07:10:05;;;;;;;;;;;20.80;24.40;;;;;;5140661;27;20398;-54
2022/04/03 07:12:31;;;;;;;;;;;20.80;24.40;;;;;;5143446;27;20010;-60
2022/04/03 07:14:57;;;;;;;;;;;20.80;24.40;;;;;;5149026;27;19997;-58
2022/04/03 07:17:23;;;;;;;;;;;20.80;24.40;;;;;;5143617;27;20476;-57
2022/04/03 07:19:48;;;;;;;;;;;20.80;24.30;;;;;;5143477;27;19927;-55
2022/04/03 07:22:14;;;;;;;;;;;20.80;24.20;;;;;;5149056;27;19927;-54
2022/04/03 07:24:40;;;;;;;;;;;20.80;24.20;;;;;;5143338;27;19934;-57
2022/04/03 07:27:06;;;;;;;;;;;20.90;24.10;;;;;;5146555;27;20411;-54
2022/04/03 07:29:33;;;;;;;;;;;20.90;24.00;;;;;;5141452;27;19970;-56
2022/04/03 07:31:59;;;;;;;;;;;20.90;24.10;;;;;;5123407;27;19927;-57
2022/04/03 07:34:25;;;;;;;;;;;20.90;24.10;;;;;;5148611;27;20374;-57
2022/04/03 07:36:50;;;;;;;;;;;20.80;24.30;;;;;;5143470;27;20271;-56
2022/04/03 07:39:16;;;;;;;;;;;20.80;24.20;;;;;;5143342;27;20319;-57
2022/04/03 07:41:42;;;;;;;;;;;20.90;24.30;;;;;;5148407;27;19926;-58
2022/04/03 07:44:08;;;;;;;;;;;20.90;24.20;;;;;;5142276;27;19923;-54
2022/04/03 07:46:34;;;;;;;;;;;20.80;24.10;;;;;;5145032;27;19923;-56
2022/04/03 07:49:00;;;;;;;;;;;20.90;24.00;;;;;;5142828;27;19931;-57
2022/04/03 07:51:27;;;;;;;;;;;20.90;24.00;;;;;;5143049;27;19927;-56
2022/04/03 07:53:53;;;;;;;;;;;20.80;24.00;;;;;;5148672;27;20259;-57
2022/04/03 07:56:19;;;;;;;;;;;20.90;23.90;;;;;;5143326;27;19929;-56
2022/04/03 07:58:45;;;;;;;;;;;20.90;23.90;;;;;;5124521;27;19923;-55
2022/04/03 08:01:11;;;;;;;;;;;20.90;23.80;;;;;;5148194;27;19972;-58
2022/04/03 08:03:36;;;;;;;;;;;21.00;23.80;;;;;;5141222;27;19934;-57
2022/04/03 08:06:02;;;;;;;;;;;20.90;24.00;;;;;;5142274;27;19972;-56
2022/04/03 08:08:28;;;;;;;;;;;20.90;24.00;;;;;;5145871;27;19927;-55
2022/04/03 08:10:54;;;;;;;;;;;20.90;24.00;;;;;;5142791;27;20001;-55
2022/04/03 08:13:23;;;;;;;;;;;21.00;23.80;;;;;;5148409;27;19929;-56
2022/04/03 08:15:48;;;;;;;;;;;21.00;23.80;;;;;;5142742;27;19927;-55
2022/04/03 08:18:15;;;;;;;;;;;20.90;23.80;;;;;;5142720;27;19923;-57
2022/04/03 08:20:40;;;;;;;;;;;21.00;23.70;;;;;;5147606;27;20301;-56
2022/04/03 08:23:06;;;;;;;;;;;20.90;23.80;;;;;;5139563;27;19927;-53
2022/04/03 08:25:32;;;;;;;;;;;20.90;23.90;;;;;;5140788;27;19930;-54
2022/04/03 08:28:00;;;;;;;;;;;21.00;23.80;;;;;;5148028;27;20153;-55
2022/04/03 08:30:29;;;;;;;;;;;21.00;23.80;;;;;;5142542;27;20385;-54
2022/04/03 08:32:55;;;;;;;;;;;20.90;23.80;;;;;;5147768;27;19923;-56
2022/04/03 08:35:21;;;;;;;;;;;21.00;23.70;;;;;;5142493;27;19923;-56
2022/04/03 08:37:48;;;;;;;;;;;21.00;23.60;;;;;;5142270;27;19923;-54
2022/04/03 08:40:14;;;;;;;;;;;21.00;23.60;;;;;;5146571;27;19931;-54
2022/04/03 08:42:40;;;;;;;;;;;21.00;23.60;;;;;;5139093;27;19933;-53
2022/04/03 08:45:07;;;;;;;;;;;21.00;23.60;;;;;;5142262;27;19975;-48
2022/04/03 08:47:35;;;;;;;;;;;21.00;23.60;;;;;;5152557;27;19923;-45
2022/04/03 08:50:01;;;;;;;;;;;21.10;23.40;;;;;;5114110;27;19931;-48
2022/04/03 08:52:27;;;;;;;;;;;21.30;23.30;;;;;;5152414;27;20271;-57
2022/04/03 08:54:53;;;;;;;;;;;21.20;23.40;;;;;;5151322;27;19962;-58
2022/04/03 08:57:20;;;;;;;;;;;21.10;23.40;;;;;;5148783;27;19941;-58
2022/04/03 08:59:46;;;;;;;;;;;21.10;23.40;;;;;;5151885;27;19929;-57
2022/04/03 09:02:14;;;;;;;;;;;21.10;23.30;;;;;;5146753;27;19946;-57
2022/04/03 09:04:40;;;;;;;;;;;21.10;23.30;;;;;;5149032;27;19961;-55
2022/04/03 09:07:06;;;;;;;;;;;21.00;23.30;;;;;;5154347;27;19923;-55
2022/04/03 09:09:32;;;;;;;;;;;20.90;23.30;;;;;;5149046;27;19923;-54
2022/04/03 09:12:07;;;;;;;;;;;21.10;23.10;;;;;;5149076;27;19948;-51
2022/04/03 09:14:33;;;;;;;;;;;21.00;23.20;;;;;;5154060;27;20067;-55
2022/04/03 09:16:59;;;;;;;;;;;21.30;23.00;;;;;;5147789;27;19948;-60
2022/04/03 09:19:32;;;;;;;;;;;21.10;23.00;;;;;;5150867;27;19923;-60
2022/04/03 09:21:57;;;;;;;;;;;20.90;23.10;;;;;;5150181;27;19929;-60
2022/04/03 09:24:23;;;;;;;;;;;20.80;23.10;;;;;;5148979;27;20366;-60
2022/04/03 09:26:58;;;;;;;;;;;20.80;23.20;;;;;;5154330;27;19927;-60
2022/04/03 09:29:24;;;;;;;;;;;20.80;23.30;;;;;;5148611;27;20349;-59
2022/04/03 09:31:50;;;;;;;;;;;20.70;23.20;;;;;;5148399;27;19953;-57
2022/04/03 09:34:16;;;;;;;;;;;20.80;23.20;;;;;;5135279;27;20405;-58
2022/04/03 09:36:42;;;;;;;;;;;20.70;23.30;;;;;;5146369;27;20005;-57
2022/04/03 09:39:09;;;;;;;;;;;20.70;23.40;;;;;;5146050;27;20007;-59
2022/04/03 09:41:54;;;;;;;;;;;20.80;23.20;;;;;;5154021;27;19937;-56
2022/04/03 09:44:23;;;;;;;;;;;20.70;23.20;;;;;;5148474;27;19936;-59
2022/04/03 09:46:56;;;;;;;;;;;20.60;23.10;;;;;;5148510;27;19923;-57
2022/04/03 09:49:25;;;;;;;;;;;20.70;23.10;;;;;;5135156;27;19923;-59
2022/04/03 09:51:51;;;;;;;;;;;20.80;23.00;;;;;;5148334;27;19923;-59
2022/04/03 09:54:17;;;;;;;;;;;20.70;23.00;;;;;;5152758;27;19927;-59
2022/04/03 09:56:43;;;;;;;;;;;20.80;22.90;;;;;;5145158;27;19968;-55
2022/04/03 09:59:09;;;;;;;;;;;20.80;22.90;;;;;;5145446;27;19923;-57
2022/04/03 10:01:38;;;;;;;;;;;20.80;23.00;;;;;;5150606;27;19930;-58
2022/04/03 10:04:05;;;;;;;;;;;20.80;23.10;;;;;;5145142;27;19927;-59
2022/04/03 10:06:31;;;;;;;;;;;20.80;23.00;;;;;;5145271;27;19923;-57
2022/04/03 10:08:57;;;;;;;;;;;20.80;23.00;;;;;;5150396;27;20409;-58
2022/04/03 10:11:23;;;;;;;;;;;20.80;22.90;;;;;;5144652;27;19955;-57
2022/04/03 10:13:49;;;;;;;;;;;20.80;22.90;;;;;;5144188;27;19926;-57
2022/04/03 10:16:15;;;;;;;;;;;20.80;22.70;;;;;;5146661;27;20044;-58
2022/04/03 10:18:41;;;;;;;;;;;20.80;22.70;;;;;;5144837;27;20289;-58
2022/04/03 10:21:14;;;;;;;;;;;20.80;22.70;;;;;;5150120;27;19927;-57
2022/04/03 10:23:40;;;;;;;;;;;20.80;22.70;;;;;;5144874;27;20022;-57
2022/04/03 10:26:06;;;;;;;;;;;20.90;22.70;;;;;;5144673;27;19945;-58
2022/04/03 10:28:32;;;;;;;;;;;20.90;22.70;;;;;;5131736;27;20219;-59
2022/04/03 10:30:58;;;;;;;;;;;20.90;22.90;;;;;;5143755;27;19951;-58
2022/04/03 10:33:24;;;;;;;;;;;20.80;22.90;;;;;;5141252;27;20211;-59
2022/04/03 10:36:02;;;;;;;;;;;20.80;23.00;;;;;;5149161;27;20397;-57
2022/04/03 10:38:37;;;;;;;;;;;20.80;23.10;;;;;;5144255;27;20002;-58
2022/04/03 10:41:05;;;;;;;;;;;20.90;23.30;;;;;;5144540;27;19949;-58
2022/04/03 10:43:31;;;;;;;;;;;20.80;23.50;;;;;;5149975;27;19923;-56
2022/04/03 10:45:57;;;;;;;;;;;20.90;23.50;;;;;;5125392;27;20013;-56
2022/04/03 10:48:24;;;;;;;;;;;20.80;23.60;;;;;;5149546;27;19933;-57
2022/04/03 10:51:20;;;;;;;;;;;20.90;23.60;;;;;;5142043;27;20348;-57
2022/04/03 10:53:49;;;;;;;;;;;20.90;23.50;;;;;;5118122;27;20297;-56
2022/04/03 10:56:22;;;;;;;;;;;20.90;23.40;;;;;;5149270;27;20034;-58
2022/04/03 10:58:48;;;;;;;;;;;20.90;23.50;;;;;;5147646;27;19923;-57
2022/04/03 11:01:26;;;;;;;;;;;20.90;23.40;;;;;;5143841;27;20014;-58
2022/04/03 11:03:52;;;;;;;;;;;20.90;23.40;;;;;;5149514;27;20384;-58
2022/04/03 11:06:19;;;;;;;;;;;20.90;23.40;;;;;;5143897;27;19923;-56
2022/04/03 11:08:54;;;;;;;;;;;20.80;23.30;;;;;;5142768;27;19927;-58
2022/04/03 11:11:29;;;;;;;;;;;20.90;23.10;;;;;;5145730;27;20196;-55
2022/04/03 11:13:55;;;;;;;;;;;21.00;23.20;;;;;;5125320;27;19923;-58
2022/04/03 11:16:22;;;;;;;;;;;21.00;23.40;;;;;;5125356;27;19930;-55
2022/04/03 11:18:50;;;;;;;;;;;21.00;23.40;;;;;;5149318;27;19942;-57
2022/04/03 11:21:25;;;;;;;;;;;21.00;23.40;;;;;;5143517;27;19927;-55
2022/04/03 11:23:54;;;;;;;;;;;21.00;23.30;;;;;;5143461;27;20090;-56
2022/04/03 11:26:20;;;;;;;;;;;21.00;23.40;;;;;;5148161;27;19975;-57
2022/04/03 11:28:46;;;;;;;;;;;21.10;23.20;;;;;;5121560;27;19930;-57
2022/04/03 11:31:12;;;;;;;;;;;21.00;23.10;;;;;;5145074;27;19936;-57
2022/04/03 11:33:37;;;;;;;;;;;21.10;23.00;;;;;;5146444;27;19923;-52
2022/04/03 11:36:04;;;;;;;;;;;21.00;23.00;;;;;;5143160;27;19975;-56
2022/04/03 11:38:34;;;;;;;;;;;21.10;22.90;;;;;;5148920;27;19923;-52
2022/04/03 11:41:01;;;;;;;;;;;21.00;22.90;;;;;;5143301;27;20006;-50
2022/04/03 11:43:27;;;;;;;;;;;21.20;22.70;;;;;;5143123;27;20394;-46
2022/04/03 11:45:54;;;;;;;;;;;21.20;22.60;;;;;;5147100;27;19934;-58
2022/04/03 11:48:20;;;;;;;;;;;21.10;22.60;;;;;;5139860;27;19956;-59
2022/04/03 11:50:46;;;;;;;;;;;20.90;22.70;;;;;;5142897;27;20129;-59
2022/04/03 11:53:12;;;;;;;;;;;20.90;22.80;;;;;;5148551;27;19965;-59
2022/04/03 11:55:38;;;;;;;;;;;20.90;22.70;;;;;;5142925;27;19962;-58
2022/04/03 11:58:04;;;;;;;;;;;20.80;22.70;;;;;;5148453;27;19923;-59
2022/04/03 12:00:33;;;;;;;;;;;20.80;22.60;;;;;;5142795;27;19923;-59
2022/04/03 12:02:59;;;;;;;;;;;20.80;22.50;;;;;;5142422;27;20367;-58
2022/04/03 12:05:25;;;;;;;;;;;20.80;22.30;;;;;;5145315;27;19924;-56
2022/04/03 12:07:50;;;;;;;;;;;20.90;22.20;;;;;;5140949;27;19968;-57
2022/04/03 12:10:26;;;;;;;;;;;20.90;22.00;;;;;;5142758;27;20188;-58
2022/04/03 12:12:53;;;;;;;;;;;20.90;22.00;;;;;;5148123;27;19927;-58
2022/04/03 12:15:20;;;;;;;;;;;20.90;22.00;;;;;;5142465;27;19938;-58
2022/04/03 12:17:46;;;;;;;;;;;20.90;21.90;;;;;;5142716;27;19935;-58
2022/04/03 12:20:15;;;;;;;;;;;20.90;21.80;;;;;;5147864;27;19989;-57
2022/04/03 12:22:41;;;;;;;;;;;21.00;21.60;;;;;;5140334;27;19973;-57
2022/04/03 12:25:08;;;;;;;;;;;21.00;21.50;;;;;;5144329;27;20029;-59
2022/04/03 12:27:34;;;;;;;;;;;21.00;21.50;;;;;;5123564;27;19927;-57
2022/04/03 12:30:00;;;;;;;;;;;20.90;21.30;;;;;;5142423;27;19973;-58
2022/04/03 12:32:26;;;;;;;;;;;21.00;21.20;;;;;;5145842;27;19923;-57
2022/04/03 12:34:52;;;;;;;;;;;21.00;21.20;;;;;;5142255;27;19935;-57
2022/04/03 12:37:18;;;;;;;;;;;21.00;21.30;;;;;;5142051;27;20033;-51
2022/04/03 12:39:44;;;;;;;;;;;21.10;21.30;;;;;;5147636;27;19929;-56
2022/04/03 12:42:11;;;;;;;;;;;21.30;21.20;;;;;;5139973;27;20413;-59
2022/04/03 12:44:43;;;;;;;;;;;21.10;21.40;;;;;;5145447;27;20049;-59
2022/04/03 12:47:13;;;;;;;;;;;21.00;21.40;;;;;;5144912;27;20553;-58
2022/04/03 12:49:40;;;;;;;;;;;21.00;21.50;;;;;;5142053;27;19934;-53
2022/04/03 12:52:06;;;;;;;;;;;21.20;21.40;;;;;;5129154;27;19929;-51
2022/04/03 12:54:41;;;;;;;;;;;21.30;21.30;;;;;;5142102;27;19926;-48
2022/04/03 13:00:14;;;;;;;;;;;20.90;21.30;;;;;;5144846;27;19981;-56
2022/04/03 13:02:42;;;;;;;;;;;20.80;21.60;;;;;;5142389;27;19955;-60
2022/04/03 13:05:12;;;;;;;;;;;20.80;21.50;;;;;;5141953;27;19927;-59
2022/04/03 13:07:37;;;;;;;;;;;20.80;21.60;;;;;;5147535;27;19933;-59
2022/04/03 13:10:03;;;;;;;;;;;20.80;21.80;;;;;;5142077;27;19930;-59
2022/04/03 13:12:29;;;;;;;;;;;20.80;21.80;;;;;;5141978;27;20095;-59
2022/04/03 13:14:59;;;;;;;;;;;20.80;21.90;;;;;;5147276;27;19931;-56
2022/04/03 13:17:26;;;;;;;;;;;20.80;22.00;;;;;;5141409;27;20448;-56
2022/04/03 13:19:52;;;;;;;;;;;20.90;21.90;;;;;;5138501;27;20246;-58
2022/04/03 13:22:18;;;;;;;;;;;20.80;21.90;;;;;;5146018;27;19923;-57
2022/04/03 13:24:43;;;;;;;;;;;20.90;21.90;;;;;;5142019;27;20355;-57
2022/04/03 13:27:09;;;;;;;;;;;20.80;21.80;;;;;;5147554;27;19927;-57
2022/04/03 13:29:38;;;;;;;;;;;20.90;21.80;;;;;;5141916;27;19923;-57
2022/04/03 13:32:04;;;;;;;;;;;20.80;21.80;;;;;;5142034;27;19983;-55
2022/04/03 13:34:29;;;;;;;;;;;20.80;21.80;;;;;;5150459;27;19926;-58
2022/04/03 13:36:55;;;;;;;;;;;21.00;21.80;;;;;;5144395;27;19969;-59
2022/04/03 13:39:21;;;;;;;;;;;21.00;21.70;;;;;;5142156;27;19927;-57
2022/04/03 13:41:47;;;;;;;;;;;21.00;21.50;;;;;;5150529;27;19930;-59
2022/04/03 13:44:13;;;;;;;;;;;21.00;21.50;;;;;;5145388;27;20014;-57
2022/04/03 13:46:39;;;;;;;;;;;21.00;21.50;;;;;;5148752;27;19980;-55
2022/04/03 13:49:05;;;;;;;;;;;21.00;21.50;;;;;;5148382;27;19923;-58
2022/04/03 13:51:30;;;;;;;;;;;21.00;21.50;;;;;;5126711;27;19923;-56
2022/04/03 13:53:56;;;;;;;;;;;21.00;21.40;;;;;;5150463;27;20462;-56
2022/04/03 13:56:23;;;;;;;;;;;21.00;21.50;;;;;;5124403;27;19927;-56
2022/04/03 13:58:49;;;;;;;;;;;21.00;21.50;;;;;;5143033;27;20397;-57
2022/04/03 14:01:17;;;;;;;;;;;21.00;21.60;;;;;;5150918;27;20412;-56
2022/04/03 14:03:46;;;;;;;;;;;21.00;21.50;;;;;;5145311;27;19927;-55
2022/04/03 14:06:11;;;;;;;;;;;21.00;21.30;;;;;;5145202;27;19923;-51
2022/04/03 14:08:37;;;;;;;;;;;21.10;21.00;;;;;;5150770;27;19930;-48
2022/04/03 14:11:03;;;;;;;;;;;21.30;20.90;;;;;;5145004;27;19927;-58
2022/04/03 14:13:31;;;;;;;;;;;21.20;20.90;;;;;;5149603;27;19970;-57
2022/04/03 14:15:57;;;;;;;;;;;21.00;20.90;;;;;;5141637;27;19923;-60